Time;durP1;ratioP1;P1;durP2;ratioP2;P2;SDS_P1;SDS_P2;PMS_P1;PMS_P2;Temp;Humidity;BMP_temperature;BMP_pressure;BME280_temperature;BME280_humidity;BME280_pressure;Samples;Min_cycle;Max_cycle;Signal;HPM_P1;HPM_P2
2023/06/19 00:00:12;;;;;;;7.50;6.80;;;22.00;54.50;;;;;;5035258;28;20040;-72
2023/06/19 00:02:38;;;;;;;7.53;6.80;;;22.00;54.00;;;;;;5035132;28;20025;-72
2023/06/19 00:05:04;;;;;;;7.45;6.63;;;22.00;53.80;;;;;;5034731;28;20492;-72
2023/06/19 00:07:29;;;;;;;7.35;6.40;;;22.10;53.90;;;;;;5034750;28;20034;-72
2023/06/19 00:09:55;;;;;;;7.07;6.38;;;22.10;53.70;;;;;;5034877;28;20091;-72
2023/06/19 00:12:20;;;;;;;7.10;6.50;;;22.10;53.40;;;;;;5034651;28;20559;-72
2023/06/19 00:14:46;;;;;;;7.13;6.50;;;22.20;53.00;;;;;;5034823;28;20025;-72
2023/06/19 00:17:16;;;;;;;7.30;6.60;;;22.20;53.10;;;;;;5034739;28;20022;-72
2023/06/19 00:19:42;;;;;;;9.35;6.63;;;22.20;52.90;;;;;;5034739;28;20478;-72
2023/06/19 00:22:07;;;;;;;7.45;6.75;;;22.20;52.80;;;;;;5034766;28;20021;-72
2023/06/19 00:24:33;;;;;;;7.10;6.45;;;22.20;52.20;;;;;;5034621;28;20029;-72
2023/06/19 00:27:02;;;;;;;6.85;5.88;;;22.30;52.10;;;;;;5033916;28;20028;-72
2023/06/19 00:29:32;;;;;;;7.00;6.20;;;22.30;51.20;;;;;;5034427;28;20033;-72
2023/06/19 00:31:59;;;;;;;8.13;6.57;;;22.30;51.10;;;;;;5034426;28;20036;-72
2023/06/19 00:34:24;;;;;;;7.47;6.78;;;22.20;51.20;;;;;;5034597;28;20029;-72
2023/06/19 00:36:51;;;;;;;8.40;6.45;;;22.20;51.40;;;;;;5034433;28;20117;-72
2023/06/19 00:39:16;;;;;;;7.03;6.43;;;22.20;51.70;;;;;;5034401;28;20033;-72
2023/06/19 00:41:43;;;;;;;7.25;6.55;;;22.10;51.80;;;;;;5034362;28;20017;-72
2023/06/19 00:44:09;;;;;;;6.75;6.15;;;22.00;51.90;;;;;;5034831;28;20025;-72
2023/06/19 00:46:39;;;;;;;7.97;6.18;;;22.00;51.80;;;;;;5034062;28;20494;-72
2023/06/19 00:49:06;;;;;;;7.55;6.13;;;22.00;51.80;;;;;;5034292;28;20408;-72
2023/06/19 00:51:31;;;;;;;8.90;6.60;;;22.00;51.70;;;;;;5034191;28;20087;-72
2023/06/19 00:53:57;;;;;;;6.80;6.20;;;22.00;51.90;;;;;;5034234;28;20490;-72
2023/06/19 00:56:23;;;;;;;7.78;6.55;;;22.00;51.90;;;;;;5034224;28;20029;-72
2023/06/19 00:58:49;;;;;;;8.40;6.78;;;22.10;52.00;;;;;;5033997;28;20422;-72
2023/06/19 01:01:14;;;;;;;7.10;6.47;;;22.10;51.90;;;;;;5016626;28;20025;-79
2023/06/19 01:03:40;;;;;;;6.32;5.82;;;22.10;51.70;;;;;;5034040;28;20080;-72
2023/06/19 01:06:14;;;;;;;6.88;6.28;;;22.20;51.40;;;;;;5016283;28;20029;-72
2023/06/19 01:09:00;;;;;;;7.65;6.88;;;22.20;51.50;;;;;;5033803;28;20045;-72
2023/06/19 01:11:32;;;;;;;8.65;5.65;;;22.10;50.80;;;;;;5033756;28;20037;-72
2023/06/19 01:14:03;;;;;;;12.25;6.88;;;22.10;49.80;;;;;;5033752;28;20029;-72
2023/06/19 01:16:31;;;;;;;13.05;6.75;;;22.00;50.00;;;;;;5033770;28;20061;-73
2023/06/19 01:18:57;;;;;;;12.02;6.47;;;22.00;49.60;;;;;;5033623;28;20037;-72
2023/06/19 01:21:23;;;;;;;7.30;6.45;;;22.00;49.90;;;;;;5033650;28;20087;-72
2023/06/19 01:23:48;;;;;;;7.85;6.25;;;21.90;50.40;;;;;;5033638;28;20378;-72
2023/06/19 01:26:15;;;;;;;8.35;6.13;;;21.80;50.50;;;;;;5033616;28;20029;-72
2023/06/19 01:28:42;;;;;;;8.35;6.22;;;21.80;50.80;;;;;;5015737;28;20099;-72
2023/06/19 01:31:36;;;;;;;8.45;6.20;;;21.70;51.10;;;;;;5033802;28;20026;-72
2023/06/19 01:34:06;;;;;;;9.00;6.25;;;21.70;51.40;;;;;;5033299;28;20497;-72
2023/06/19 01:36:33;;;;;;;6.82;5.97;;;21.60;51.70;;;;;;5033190;28;20067;-71
2023/06/19 01:39:00;;;;;;;7.32;6.13;;;21.50;52.10;;;;;;5032381;28;20033;-72
2023/06/19 01:41:26;;;;;;;6.60;5.88;;;21.40;52.60;;;;;;5033324;28;20405;-72
2023/06/19 01:43:52;;;;;;;7.22;5.20;;;21.40;52.80;;;;;;5033347;28;20026;-72
2023/06/19 01:46:18;;;;;;;8.73;5.60;;;21.40;53.10;;;;;;5033117;28;20100;-71
2023/06/19 01:48:44;;;;;;;11.13;5.97;;;21.50;53.00;;;;;;5033204;28;20064;-71
2023/06/19 01:51:10;;;;;;;7.45;5.78;;;21.40;53.30;;;;;;5033230;28;20496;-71
2023/06/19 01:53:35;;;;;;;5.78;5.28;;;21.30;53.50;;;;;;5033033;28;20038;-81
2023/06/19 01:56:01;;;;;;;10.32;5.57;;;21.40;53.30;;;;;;5015473;28;20036;-72
2023/06/19 01:58:27;;;;;;;7.60;6.18;;;21.40;53.50;;;;;;5015289;28;20118;-72
2023/06/19 02:00:52;;;;;;;10.35;5.65;;;21.40;53.60;;;;;;5033144;28;20064;-72
2023/06/19 02:03:18;;;;;;;7.55;5.80;;;21.50;53.60;;;;;;5015589;28;20021;-72
2023/06/19 02:05:43;;;;;;;8.05;6.40;;;21.60;53.40;;;;;;5033038;28;20021;-72
2023/06/19 02:08:09;;;;;;;8.65;6.13;;;21.60;53.40;;;;;;5032757;28;20041;-72
2023/06/19 02:10:35;;;;;;;6.25;5.45;;;21.60;53.30;;;;;;5033019;28;20393;-72
2023/06/19 02:13:00;;;;;;;7.57;5.75;;;21.60;53.30;;;;;;5032764;28;20037;-72
2023/06/19 02:15:26;;;;;;;5.68;5.15;;;21.70;53.10;;;;;;5033039;28;20061;-71
2023/06/19 02:17:54;;;;;;;5.80;5.00;;;21.80;53.00;;;;;;5032994;28;20029;-72
2023/06/19 02:20:21;;;;;;;8.07;5.22;;;21.80;52.90;;;;;;5033021;28;20029;-72
2023/06/19 02:22:46;;;;;;;5.97;5.05;;;21.80;53.00;;;;;;5015338;28;20034;-75
2023/06/19 02:25:12;;;;;;;5.57;5.07;;;21.80;53.10;;;;;;5032954;28;20048;-72
2023/06/19 02:27:37;;;;;;;5.60;4.88;;;21.80;53.00;;;;;;5032895;28;20394;-78
2023/06/19 02:30:04;;;;;;;7.70;4.82;;;21.80;52.90;;;;;;5032976;28;20025;-72
2023/06/19 02:32:30;;;;;;;4.82;4.43;;;21.80;52.80;;;;;;5032831;28;20116;-72
2023/06/19 02:34:56;;;;;;;5.43;4.93;;;21.80;52.60;;;;;;5033014;28;20110;-70
2023/06/19 02:37:21;;;;;;;4.88;4.43;;;21.90;52.80;;;;;;5015524;28;20029;-71
2023/06/19 02:39:47;;;;;;;4.60;4.18;;;21.80;52.50;;;;;;5034144;28;20097;-70
2023/06/19 02:42:14;;;;;;;5.82;4.28;;;21.90;52.30;;;;;;5032811;28;20021;-71
2023/06/19 02:44:40;;;;;;;5.78;4.72;;;22.00;52.10;;;;;;5032772;28;20021;-71
2023/06/19 02:47:06;;;;;;;4.75;4.30;;;21.90;52.20;;;;;;5032703;28;20425;-70
2023/06/19 02:49:31;;;;;;;4.90;4.10;;;21.90;52.10;;;;;;5016065;28;20478;-71
2023/06/19 02:51:57;;;;;;;4.25;3.85;;;22.00;51.50;;;;;;5036362;28;20089;-77
2023/06/19 02:54:22;;;;;;;4.50;4.10;;;22.00;51.40;;;;;;5036555;28;20030;-71
2023/06/19 02:56:48;;;;;;;7.22;3.90;;;22.00;51.60;;;;;;5036388;28;20029;-71
2023/06/19 02:59:14;;;;;;;4.18;3.75;;;21.90;51.30;;;;;;5036606;28;20029;-73
2023/06/19 03:01:39;;;;;;;5.15;3.08;;;21.80;51.70;;;;;;5036488;28;20029;-75
2023/06/19 03:04:05;;;;;;;3.60;3.25;;;21.70;51.50;;;;;;5037277;28;20029;-78
2023/06/19 03:06:30;;;;;;;4.28;3.10;;;21.70;51.70;;;;;;5036580;28;20022;-72
2023/06/19 03:08:56;;;;;;;3.55;3.25;;;21.70;51.70;;;;;;5036825;28;20049;-78
2023/06/19 03:11:22;;;;;;;3.72;3.15;;;21.60;51.60;;;;;;5036391;28;20083;-76
2023/06/19 03:13:52;;;;;;;5.28;3.15;;;21.60;51.80;;;;;;5036369;28;20110;-74
2023/06/19 03:16:18;;;;;;;3.47;3.17;;;21.60;52.20;;;;;;5036415;28;20470;-73
2023/06/19 03:18:44;;;;;;;5.03;3.85;;;21.60;52.40;;;;;;5036454;28;20033;-72
2023/06/19 03:21:14;;;;;;;3.95;3.40;;;21.70;52.70;;;;;;5036137;28;20470;-75
2023/06/19 03:23:42;;;;;;;3.53;3.22;;;21.70;52.30;;;;;;5036022;28;20045;-80
2023/06/19 03:26:08;;;;;;;3.40;3.10;;;21.70;52.20;;;;;;5036072;28;20378;-72
2023/06/19 03:28:34;;;;;;;3.78;3.13;;;21.80;52.40;;;;;;5018546;28;20032;-76
2023/06/19 03:31:00;;;;;;;4.68;3.28;;;21.80;52.50;;;;;;5036123;28;20437;-80
2023/06/19 03:33:26;;;;;;;4.47;3.20;;;21.80;52.60;;;;;;5035815;28;20034;-79
2023/06/19 03:35:51;;;;;;;4.20;3.65;;;21.70;52.70;;;;;;5018121;28;20023;-73
2023/06/19 03:38:17;;;;;;;3.60;3.28;;;21.70;52.90;;;;;;5035739;28;20029;-78
2023/06/19 03:40:43;;;;;;;4.55;3.20;;;21.70;52.70;;;;;;5035739;28;20045;-81
2023/06/19 03:43:08;;;;;;;3.45;3.10;;;21.70;53.00;;;;;;5035828;28;20034;-83
2023/06/19 03:45:34;;;;;;;3.90;3.50;;;21.70;53.00;;;;;;5035768;28;20018;-83
2023/06/19 03:47:59;;;;;;;5.72;3.13;;;21.70;53.00;;;;;;5036062;28;20063;-83
2023/06/19 03:50:25;;;;;;;3.90;2.95;;;21.70;53.30;;;;;;5036066;28;20065;-84
2023/06/19 03:52:50;;;;;;;3.72;3.42;;;21.70;53.30;;;;;;5047565;28;20040;-73
2023/06/19 03:55:16;;;;;;;3.08;2.83;;;21.70;53.50;;;;;;5051745;28;20044;-72
2023/06/19 03:57:42;;;;;;;5.63;3.67;;;21.70;53.70;;;;;;5046493;28;20025;-84
2023/06/19 04:00:07;;;;;;;4.68;3.08;;;21.70;53.90;;;;;;5035758;28;20021;-85
2023/06/19 04:02:34;;;;;;;3.55;2.97;;;21.60;54.40;;;;;;5035051;28;20033;-78
2023/06/19 04:04:59;;;;;;;3.40;3.10;;;21.70;55.10;;;;;;5035743;28;20125;-85
2023/06/19 04:07:25;;;;;;;4.05;2.95;;;21.70;55.90;;;;;;5035621;28;20029;-79
2023/06/19 04:09:50;;;;;;;3.38;2.67;;;21.70;55.20;;;;;;5035425;28;20048;-79
2023/06/19 04:12:16;;;;;;;2.83;2.50;;;21.70;55.40;;;;;;5035335;28;20033;-80
2023/06/19 04:14:41;;;;;;;3.80;3.20;;;21.70;56.20;;;;;;5035272;28;20029;-74
2023/06/19 04:17:07;;;;;;;4.32;3.13;;;21.70;56.70;;;;;;5017688;28;20036;-80
2023/06/19 04:19:33;;;;;;;3.28;2.97;;;21.70;57.10;;;;;;5035217;28;20100;-79
2023/06/19 04:21:58;;;;;;;3.15;2.80;;;21.70;57.40;;;;;;5035506;28;20030;-81
2023/06/19 04:24:24;;;;;;;2.72;2.53;;;21.60;58.00;;;;;;5035506;28;20390;-73
2023/06/19 04:26:49;;;;;;;7.55;2.83;;;21.60;57.90;;;;;;5036948;28;20616;-83
2023/06/19 04:29:16;;;;;;;3.85;2.80;;;21.60;58.20;;;;;;5036883;28;20037;-81
2023/06/19 04:31:46;;;;;;;2.88;2.65;;;21.60;59.00;;;;;;5037074;28;20437;-81
2023/06/19 04:34:16;;;;;;;2.97;2.58;;;21.60;59.20;;;;;;5036848;28;20025;-73
2023/06/19 04:36:41;;;;;;;3.00;2.58;;;21.60;59.50;;;;;;5035017;28;20022;-85
2023/06/19 04:39:07;;;;;;;2.65;2.45;;;21.50;59.80;;;;;;5017876;28;20048;-81
2023/06/19 04:41:32;;;;;;;4.07;2.33;;;21.50;59.70;;;;;;5034785;28;20113;-84
2023/06/19 04:43:58;;;;;;;2.63;2.42;;;21.50;59.60;;;;;;5016978;28;20489;-81
2023/06/19 04:46:23;;;;;;;2.67;2.47;;;21.50;59.60;;;;;;5034751;28;20025;-85
2023/06/19 04:48:50;;;;;;;2.78;2.58;;;21.60;59.50;;;;;;5034571;28;20057;-84
2023/06/19 04:51:20;;;;;;;2.65;2.45;;;21.60;59.10;;;;;;5034523;28;20022;-83
2023/06/19 04:53:46;;;;;;;3.22;2.75;;;21.70;59.00;;;;;;5034429;28;20048;-85
2023/06/19 04:56:12;;;;;;;3.10;2.38;;;21.80;58.80;;;;;;5035622;28;20017;-85
2023/06/19 04:58:45;;;;;;;2.80;2.60;;;21.90;59.10;;;;;;5034634;28;20476;-84
2023/06/19 05:01:11;;;;;;;2.80;2.60;;;21.90;58.80;;;;;;5020974;28;20041;-85
2023/06/19 05:03:37;;;;;;;3.53;2.65;;;21.90;58.70;;;;;;5018210;28;20029;-85
2023/06/19 05:06:02;;;;;;;5.15;2.50;;;21.90;58.70;;;;;;5034143;28;20034;-80
2023/06/19 05:08:28;;;;;;;3.30;3.00;;;21.90;58.70;;;;;;5033970;28;20119;-75
2023/06/19 05:10:54;;;;;;;3.20;2.90;;;21.80;58.90;;;;;;5034211;28;20079;-78
2023/06/19 05:13:20;;;;;;;2.65;2.45;;;21.80;59.00;;;;;;5043326;28;20036;-80
2023/06/19 05:15:45;;;;;;;2.50;2.30;;;21.80;59.30;;;;;;5053534;28;20078;-79
2023/06/19 05:18:11;;;;;;;3.40;2.55;;;21.80;59.50;;;;;;5058357;28;20052;-80
2023/06/19 05:20:36;;;;;;;4.45;2.63;;;21.80;59.40;;;;;;5075350;28;20025;-79
2023/06/19 05:23:02;;;;;;;3.08;2.30;;;21.70;60.30;;;;;;5057651;28;20043;-78
2023/06/19 05:25:28;;;;;;;3.25;2.20;;;21.70;60.80;;;;;;5053804;28;20525;-78
2023/06/19 05:27:53;;;;;;;2.60;2.38;;;21.70;60.80;;;;;;5035521;28;20021;-78
2023/06/19 05:30:19;;;;;;;2.72;2.50;;;21.70;60.50;;;;;;5041119;28;20080;-77
2023/06/19 05:32:44;;;;;;;2.53;2.22;;;21.70;60.50;;;;;;5033074;28;20103;-78
2023/06/19 05:35:10;;;;;;;4.22;2.40;;;21.70;60.70;;;;;;5015209;28;20347;-80
2023/06/19 05:37:35;;;;;;;2.38;2.20;;;21.60;60.50;;;;;;5015492;28;20048;-77
2023/06/19 05:40:01;;;;;;;2.25;2.05;;;21.60;60.20;;;;;;5033214;28;20104;-77
2023/06/19 05:42:27;;;;;;;2.75;2.30;;;21.70;60.40;;;;;;5015844;28;20056;-78
2023/06/19 05:44:52;;;;;;;2.80;2.60;;;21.70;60.80;;;;;;5015473;28;20040;-81
2023/06/19 05:47:20;;;;;;;2.42;2.22;;;21.60;61.20;;;;;;5015203;28;20478;-79
2023/06/19 05:49:46;;;;;;;3.00;2.58;;;21.70;61.70;;;;;;5015772;28;20060;-84
2023/06/19 05:52:12;;;;;;;2.63;2.42;;;21.70;61.60;;;;;;5033176;28;20029;-82
2023/06/19 05:54:37;;;;;;;4.60;2.33;;;21.80;61.40;;;;;;5033306;28;20488;-82
2023/06/19 05:57:03;;;;;;;3.35;2.42;;;21.80;61.20;;;;;;5033987;28;20022;-83
2023/06/19 05:59:29;;;;;;;2.88;2.67;;;21.90;61.20;;;;;;5040011;28;20032;-78
2023/06/19 06:01:55;;;;;;;3.80;2.55;;;21.90;61.00;;;;;;5044728;28;20191;-78
2023/06/19 06:04:21;;;;;;;2.75;2.55;;;22.00;58.30;;;;;;5035984;28;20025;-77
2023/06/19 06:06:47;;;;;;;6.22;2.60;;;22.00;58.00;;;;;;5035291;28;20437;-78
2023/06/19 06:09:14;;;;;;;2.67;2.47;;;22.10;58.50;;;;;;5033214;28;20184;-77
2023/06/19 06:11:40;;;;;;;3.10;2.83;;;22.20;58.30;;;;;;5033702;28;20017;-84
2023/06/19 06:14:05;;;;;;;6.82;3.22;;;22.20;58.10;;;;;;5021386;28;20128;-91
2023/06/19 06:16:31;;;;;;;9.05;3.35;;;22.30;56.80;;;;;;5040028;28;20060;-81
2023/06/19 06:18:56;;;;;;;3.03;2.67;;;22.50;56.00;;;;;;5038051;28;20044;-86
2023/06/19 06:21:22;;;;;;;4.80;3.08;;;22.70;55.60;;;;;;5040180;28;20075;-92
2023/06/19 06:23:48;;;;;;;3.97;3.20;;;22.90;55.50;;;;;;5038091;28;20025;-91
2023/06/19 06:26:14;;;;;;;3.20;2.90;;;23.00;54.60;;;;;;5040547;28;20034;-86
2023/06/19 06:28:40;;;;;;;3.08;2.78;;;23.10;54.30;;;;;;5019478;28;20482;-79
2023/06/19 06:31:05;;;;;;;3.22;2.90;;;23.30;52.60;;;;;;5037016;28;20108;-75
2023/06/19 06:33:31;;;;;;;3.20;2.90;;;23.40;52.20;;;;;;5036708;28;20033;-79
2023/06/19 06:35:58;;;;;;;4.15;3.10;;;23.50;52.00;;;;;;5018676;28;20049;-80
2023/06/19 06:38:24;;;;;;;3.58;2.47;;;23.70;51.30;;;;;;5018845;28;20524;-79
2023/06/19 06:40:50;;;;;;;3.97;3.20;;;23.80;51.30;;;;;;5018860;28;20104;-77
2023/06/19 06:43:15;;;;;;;3.22;2.92;;;23.80;50.90;;;;;;5018635;28;20033;-78
2023/06/19 06:45:44;;;;;;;2.70;2.50;;;23.90;50.80;;;;;;5036399;28;20021;-77
2023/06/19 06:48:09;;;;;;;2.90;2.50;;;24.00;50.30;;;;;;5018610;28;20026;-77
2023/06/19 06:50:35;;;;;;;3.55;2.72;;;24.00;50.10;;;;;;5036515;28;20032;-75
2023/06/19 06:53:01;;;;;;;3.00;2.78;;;24.10;50.00;;;;;;5036236;28;20482;-73
2023/06/19 06:55:26;;;;;;;3.53;2.75;;;24.00;49.70;;;;;;5036318;28;20029;-73
2023/06/19 06:57:52;;;;;;;3.38;2.75;;;24.20;49.60;;;;;;5036138;28;20021;-76
2023/06/19 07:00:18;;;;;;;2.60;2.40;;;24.20;49.40;;;;;;5036122;28;20445;-78
2023/06/19 07:02:44;;;;;;;3.20;2.80;;;24.40;49.30;;;;;;5036189;28;20371;-79
2023/06/19 07:05:10;;;;;;;2.60;2.38;;;24.60;48.90;;;;;;5036049;28;20025;-78
2023/06/19 07:07:36;;;;;;;3.13;2.83;;;24.70;48.30;;;;;;5035661;28;20021;-74
2023/06/19 07:10:02;;;;;;;2.92;2.53;;;24.80;47.80;;;;;;5036108;28;20071;-76
2023/06/19 07:12:28;;;;;;;3.15;2.85;;;24.80;47.40;;;;;;5035978;28;20026;-75
2023/06/19 07:14:55;;;;;;;2.50;2.30;;;24.90;47.00;;;;;;5001963;28;20071;-76
2023/06/19 07:17:20;;;;;;;2.88;2.33;;;24.80;46.70;;;;;;5036019;28;20534;-77
2023/06/19 07:19:46;;;;;;;2.72;2.00;;;24.80;47.00;;;;;;5018360;28;20027;-80
2023/06/19 07:22:12;;;;;;;2.60;2.40;;;24.90;47.10;;;;;;5035841;28;20462;-77
2023/06/19 07:24:37;;;;;;;3.53;2.92;;;25.00;46.70;;;;;;5035738;28;20084;-74
2023/06/19 07:27:03;;;;;;;6.45;2.25;;;25.10;46.40;;;;;;5035666;28;20021;-73
2023/06/19 07:29:29;;;;;;;2.58;2.38;;;25.10;46.20;;;;;;5035809;28;20030;-75
2023/06/19 07:31:55;;;;;;;3.28;2.13;;;25.10;46.00;;;;;;5017883;28;20053;-76
2023/06/19 07:34:21;;;;;;;2.30;2.10;;;25.10;45.90;;;;;;5034878;28;20083;-74
2023/06/19 07:36:47;;;;;;;2.75;2.38;;;25.00;45.70;;;;;;5008613;28;20432;-76
2023/06/19 07:39:12;;;;;;;2.67;2.35;;;25.10;45.70;;;;;;5032703;28;20021;-74
2023/06/19 07:41:38;;;;;;;2.45;2.13;;;25.20;45.60;;;;;;5036688;28;20025;-74
2023/06/19 07:44:04;;;;;;;2.85;2.53;;;25.40;45.50;;;;;;5017833;28;20036;-77
2023/06/19 07:46:32;;;;;;;2.53;2.33;;;25.40;45.00;;;;;;5024905;28;20109;-76
2023/06/19 07:48:58;;;;;;;3.85;1.88;;;25.60;44.80;;;;;;5024289;28;20022;-78
2023/06/19 07:51:23;;;;;;;2.88;2.30;;;25.50;41.50;;;;;;5024597;28;20116;-73
2023/06/19 07:53:49;;;;;;;3.72;2.25;;;25.10;42.70;;;;;;5025848;28;20033;-74
2023/06/19 07:56:14;;;;;;;2.95;2.38;;;24.80;43.80;;;;;;5007997;28;20463;-74
2023/06/19 07:58:41;;;;;;;4.00;2.50;;;24.50;44.50;;;;;;5024201;28;20026;-71
2023/06/19 08:01:06;;;;;;;4.85;3.03;;;24.30;45.20;;;;;;5006909;28;20022;-78
2023/06/19 08:03:32;;;;;;;3.17;2.72;;;24.10;46.60;;;;;;5006232;28;20501;-74
2023/06/19 08:05:57;;;;;;;2.90;2.60;;;24.00;47.30;;;;;;5005819;28;20053;-72
2023/06/19 08:08:23;;;;;;;5.03;3.05;;;24.00;47.30;;;;;;5024826;28;20045;-76
2023/06/19 08:10:48;;;;;;;3.17;2.88;;;24.00;47.40;;;;;;5002295;28;20084;-74
2023/06/19 08:13:14;;;;;;;3.08;2.78;;;23.80;47.10;;;;;;5014943;28;20034;-76
2023/06/19 08:15:40;;;;;;;3.45;3.13;;;23.80;47.40;;;;;;5023331;28;20022;-72
2023/06/19 08:18:05;;;;;;;3.08;2.70;;;23.80;47.80;;;;;;5019417;28;20113;-78
2023/06/19 08:20:31;;;;;;;3.08;2.80;;;24.00;47.60;;;;;;5019948;28;20041;-77
2023/06/19 08:22:56;;;;;;;3.35;2.80;;;24.10;47.10;;;;;;5014733;28;20133;-76
2023/06/19 08:25:22;;;;;;;3.08;2.78;;;24.20;47.10;;;;;;5014830;28;20018;-72
2023/06/19 08:27:48;;;;;;;3.97;2.90;;;24.20;47.00;;;;;;5024795;28;20107;-74
2023/06/19 08:30:13;;;;;;;3.38;2.83;;;24.20;46.80;;;;;;5034189;28;20025;-74
2023/06/19 08:32:39;;;;;;;2.70;2.50;;;24.20;46.90;;;;;;5034337;28;20042;-78
2023/06/19 08:35:05;;;;;;;2.88;2.67;;;24.20;45.00;;;;;;5034623;28;20165;-79
2023/06/19 08:37:30;;;;;;;2.97;2.63;;;24.20;45.60;;;;;;5016609;28;20093;-77
2023/06/19 08:39:56;;;;;;;3.00;2.72;;;24.30;46.10;;;;;;5016754;28;20026;-77
2023/06/19 08:42:22;;;;;;;3.88;2.85;;;24.40;46.00;;;;;;5034153;28;20390;-77
2023/06/19 08:44:48;;;;;;;3.83;3.40;;;24.50;46.60;;;;;;5033905;28;20115;-78
2023/06/19 08:47:14;;;;;;;3.10;2.80;;;24.40;46.00;;;;;;5033557;28;20049;-76
2023/06/19 08:49:40;;;;;;;4.60;2.97;;;24.50;45.00;;;;;;5034023;28;20497;-78
2023/06/19 08:52:06;;;;;;;4.18;3.00;;;24.60;45.20;;;;;;5033805;28;20158;-77
2023/06/19 08:54:32;;;;;;;4.05;3.08;;;24.60;45.50;;;;;;5033801;28;20025;-79
2023/06/19 08:57:02;;;;;;;3.45;3.13;;;24.80;44.50;;;;;;5033760;28;20025;-76
2023/06/19 08:59:31;;;;;;;6.43;3.35;;;25.10;43.50;;;;;;5033576;28;20026;-76
2023/06/19 09:01:57;;;;;;;2.95;2.67;;;25.20;43.10;;;;;;5033591;28;20079;-74
2023/06/19 09:04:27;;;;;;;3.40;3.10;;;25.30;41.80;;;;;;5033275;28;20025;-76
2023/06/19 09:06:58;;;;;;;3.50;2.72;;;25.40;42.00;;;;;;5033705;28;20077;-78
2023/06/19 09:09:25;;;;;;;4.60;2.80;;;25.60;42.10;;;;;;5033465;28;20056;-76
2023/06/19 09:12:02;;;;;;;3.15;2.90;;;25.70;41.80;;;;;;5033263;28;20034;-74
2023/06/19 09:14:41;;;;;;;3.92;3.17;;;25.80;41.00;;;;;;5015855;28;20017;-71
2023/06/19 09:17:10;;;;;;;3.83;3.53;;;25.80;40.60;;;;;;5033788;28;20104;-71
2023/06/19 09:19:36;;;;;;;7.05;3.80;;;25.80;41.20;;;;;;5033391;28;20510;-74
2023/06/19 09:22:09;;;;;;;3.92;3.63;;;25.90;40.60;;;;;;5033219;28;20021;-71
2023/06/19 09:24:37;;;;;;;4.05;3.67;;;26.00;40.70;;;;;;5033284;28;20025;-78
2023/06/19 09:27:13;;;;;;;4.35;3.95;;;25.80;41.30;;;;;;5033124;28;20382;-72
2023/06/19 09:29:42;;;;;;;3.65;3.35;;;26.00;42.00;;;;;;5033375;28;20025;-73
2023/06/19 09:32:19;;;;;;;4.65;4.15;;;26.20;41.60;;;;;;5033265;28;20068;-78
2023/06/19 09:34:45;;;;;;;4.95;3.80;;;26.30;41.60;;;;;;5033428;28;20105;-78
2023/06/19 09:37:10;;;;;;;6.82;4.57;;;26.40;41.90;;;;;;5036846;28;20050;-77
2023/06/19 09:39:40;;;;;;;4.80;4.40;;;26.50;41.60;;;;;;5033723;28;20081;-77
2023/06/19 09:42:09;;;;;;;5.18;4.32;;;26.50;41.10;;;;;;5033517;28;20064;-77
2023/06/19 09:44:42;;;;;;;4.68;4.28;;;26.50;41.00;;;;;;5015356;28;20468;-78
2023/06/19 09:47:20;;;;;;;4.57;4.18;;;26.40;42.30;;;;;;5033736;28;20037;-77
2023/06/19 09:49:54;;;;;;;4.97;4.22;;;26.70;41.20;;;;;;5033029;28;20021;-78
2023/06/19 09:52:24;;;;;;;4.32;3.92;;;26.90;40.10;;;;;;5032779;28;20030;-78
2023/06/19 09:54:51;;;;;;;8.75;4.22;;;27.10;41.00;;;;;;5032619;28;20472;-78
2023/06/19 09:57:17;;;;;;;5.25;4.57;;;27.00;41.20;;;;;;5033024;28;20030;-79
2023/06/19 09:59:43;;;;;;;4.43;4.13;;;26.90;40.90;;;;;;5032046;28;20032;-76
2023/06/19 10:02:10;;;;;;;4.68;4.10;;;27.00;41.60;;;;;;5034294;28;20030;-71
2023/06/19 10:04:55;;;;;;;5.85;4.30;;;26.90;41.60;;;;;;5035818;28;20030;-71
2023/06/19 10:07:32;;;;;;;4.47;4.07;;;27.10;41.30;;;;;;5034795;28;20021;-72
2023/06/19 10:10:07;;;;;;;4.10;3.78;;;27.30;41.30;;;;;;5032078;28;20563;-78
2023/06/19 10:12:35;;;;;;;;;;;27.50;40.90;;;;;;5032806;28;20389;-78
2023/06/19 10:15:17;;;;;;;5.22;4.32;;;27.20;42.10;;;;;;5032704;28;19905;-80
2023/06/19 10:17:46;;;;;;;4.45;4.00;;;27.10;42.60;;;;;;5032602;28;20040;-77
2023/06/19 10:20:32;;;;;;;4.90;4.40;;;27.20;43.00;;;;;;5032599;28;20068;-79
2023/06/19 10:23:20;;;;;;;4.43;4.03;;;27.40;41.90;;;;;;5014268;28;20123;-79
2023/06/19 10:25:53;;;;;;;4.13;3.72;;;27.40;41.50;;;;;;5032254;28;20029;-79
2023/06/19 10:28:27;;;;;;;5.05;4.45;;;27.50;41.80;;;;;;5032246;28;20235;-78
2023/06/19 10:31:00;;;;;;;3.97;3.67;;;27.60;41.70;;;;;;5032356;28;20022;-72
2023/06/19 10:33:28;;;;;;;6.10;4.72;;;27.80;40.50;;;;;;5032087;28;20500;-78
2023/06/19 10:35:54;;;;;;;6.70;4.65;;;28.00;39.70;;;;;;5032228;28;20022;-73
2023/06/19 10:38:21;;;;;;;4.55;4.15;;;27.90;39.30;;;;;;5032270;28;20041;-71
2023/06/19 10:40:47;;;;;;;4.90;4.38;;;27.80;39.90;;;;;;5032166;28;20478;-72
2023/06/19 10:43:19;;;;;;;4.18;3.78;;;27.90;39.80;;;;;;5014414;28;20025;-72
2023/06/19 10:45:45;;;;;;;4.13;3.72;;;28.00;40.10;;;;;;5032493;28;20037;-70
2023/06/19 10:48:10;;;;;;;4.45;4.05;;;28.30;40.60;;;;;;5032172;28;20030;-72
2023/06/19 10:50:42;;;;;;;4.47;4.07;;;28.60;38.90;;;;;;5032165;28;20488;-71
2023/06/19 10:53:08;;;;;;;4.93;4.07;;;28.80;37.80;;;;;;5031796;28;20042;-71
2023/06/19 10:55:33;;;;;;;4.72;4.28;;;29.10;38.00;;;;;;5032174;28;20363;-71
2023/06/19 10:57:59;;;;;;;5.05;4.60;;;29.20;38.10;;;;;;5014594;28;20553;-70
2023/06/19 11:00:33;;;;;;;7.32;4.07;;;29.30;38.70;;;;;;5014352;28;20359;-71
2023/06/19 11:02:59;;;;;;;4.25;3.88;;;29.40;37.30;;;;;;5032177;28;20025;-72
2023/06/19 11:05:26;;;;;;;5.47;4.30;;;29.50;37.70;;;;;;5032013;28;20497;-72
2023/06/19 11:07:58;;;;;;;9.18;4.15;;;29.80;36.40;;;;;;5031953;28;20148;-72
2023/06/19 11:10:27;;;;;;;5.95;4.00;;;29.80;36.00;;;;;;5015555;28;20122;-71
2023/06/19 11:12:57;;;;;;;5.55;4.40;;;29.70;36.30;;;;;;5017743;28;20040;-71
2023/06/19 11:15:33;;;;;;;5.60;3.92;;;29.50;37.10;;;;;;5035839;28;20080;-71
2023/06/19 11:18:01;;;;;;;4.53;4.10;;;29.30;37.10;;;;;;5035778;28;20041;-71
2023/06/19 11:20:27;;;;;;;5.10;3.85;;;29.00;37.20;;;;;;5035753;28;20040;-71
2023/06/19 11:23:00;;;;;;;4.30;3.90;;;28.80;37.30;;;;;;5035371;28;20033;-70
2023/06/19 11:25:37;;;;;;;6.95;3.90;;;28.90;37.30;;;;;;5035273;28;20108;-69
2023/06/19 11:28:13;;;;;;;4.72;4.25;;;29.10;37.60;;;;;;5035598;28;20478;-71
2023/06/19 11:30:40;;;;;;;4.22;3.83;;;29.50;37.80;;;;;;5035547;28;20021;-70
2023/06/19 11:33:22;;;;;;;6.97;4.50;;;29.90;36.70;;;;;;5017540;28;20131;-71
2023/06/19 11:35:54;;;;;;;4.07;3.67;;;30.00;34.90;;;;;;5035424;28;20093;-70
2023/06/19 11:38:22;;;;;;;5.95;4.47;;;30.00;35.30;;;;;;5032917;28;20171;-69
2023/06/19 11:40:48;;;;;;;5.10;4.10;;;30.00;35.00;;;;;;5025914;28;20061;-70
2023/06/19 11:43:34;;;;;;;4.80;4.03;;;29.70;35.90;;;;;;5024809;28;20069;-71
2023/06/19 11:46:05;;;;;;;4.78;4.28;;;29.70;34.90;;;;;;5025423;28;20383;-71
2023/06/19 11:48:30;;;;;;;9.15;4.53;;;29.50;35.90;;;;;;5024316;28;20348;-71
2023/06/19 11:50:56;;;;;;;4.30;3.95;;;29.20;36.00;;;;;;5025147;28;20024;-71
2023/06/19 11:53:24;;;;;;;4.20;3.80;;;29.50;35.90;;;;;;5025588;28;20504;-71
2023/06/19 11:55:50;;;;;;;3.92;3.55;;;29.90;35.20;;;;;;5024231;28;20374;-71
2023/06/19 11:58:16;;;;;;;5.35;3.80;;;30.30;34.50;;;;;;5007339;28;20477;-71
2023/06/19 12:00:42;;;;;;;4.43;3.97;;;30.70;33.80;;;;;;5025234;28;20050;-70
2023/06/19 12:03:09;;;;;;;4.38;3.97;;;31.00;33.80;;;;;;5023350;28;20469;-70
2023/06/19 12:05:35;;;;;;;4.43;4.03;;;31.30;32.80;;;;;;5001580;28;20032;-72
2023/06/19 12:08:02;;;;;;;4.65;4.10;;;31.30;32.20;;;;;;5015161;28;20081;-72
2023/06/19 12:10:28;;;;;;;4.72;3.95;;;31.50;32.10;;;;;;5014942;28;20072;-72
2023/06/19 12:12:54;;;;;;;4.57;4.07;;;31.40;31.70;;;;;;4997014;28;20105;-72
2023/06/19 12:15:19;;;;;;;4.50;4.10;;;31.00;32.80;;;;;;5015090;28;20025;-71
2023/06/19 12:17:46;;;;;;;4.80;4.30;;;31.30;32.40;;;;;;5014854;28;20020;-73
2023/06/19 12:20:13;;;;;;;6.15;4.13;;;31.40;31.80;;;;;;5014894;28;20030;-72
2023/06/19 12:22:39;;;;;;;4.80;4.38;;;31.30;32.10;;;;;;5013704;28;20026;-76
2023/06/19 12:25:05;;;;;;;5.70;4.20;;;31.10;32.00;;;;;;4997210;28;20040;-72
2023/06/19 12:27:30;;;;;;;5.88;5.25;;;31.20;33.20;;;;;;5014753;28;20030;-72
2023/06/19 12:29:56;;;;;;;7.03;4.85;;;31.40;32.50;;;;;;5014648;28;20049;-72
2023/06/19 12:32:22;;;;;;;4.22;3.90;;;31.60;31.30;;;;;;4996782;28;20038;-71
2023/06/19 12:34:47;;;;;;;4.68;3.95;;;31.10;32.20;;;;;;5014801;28;20379;-71
2023/06/19 12:37:19;;;;;;;5.43;3.72;;;31.30;32.20;;;;;;5014534;28;20112;-73
2023/06/19 12:39:44;;;;;;;6.22;4.57;;;31.60;32.10;;;;;;5014419;28;20025;-71
2023/06/19 12:42:13;;;;;;;4.05;3.65;;;31.90;31.20;;;;;;4996890;28;20022;-71
2023/06/19 12:44:42;;;;;;;4.45;4.15;;;32.00;31.10;;;;;;5014336;28;20036;-72
2023/06/19 12:47:08;;;;;;;4.28;3.88;;;31.90;30.90;;;;;;5014482;28;20037;-71